PWSweather.com
Personal Weather Stations
Station Observations
KMAMEDFI2
Medfield, MA 02052

Medfield, MA 02052

Lat: 42.1900822, Lon: -71.3296889

Elevation: 138

Station Type: Rainwise WS MK-III

http://www.medfieldweather.com

High Low Average
Temperature 52.9°F11.6°C 30.7°F-0.7°C 43.1°F6.2°C
Dew Point 52.1°F11.2°C 29.2°F-1.6°C 42.1°F5.6°C
Winds 6.9 mph 11.1 kmh Calm Calm 2.0 mph SSE3.2 kmh SSE
Wind Gusts 5.8 mph9.3 kmh -- 2.0 mph3.2 kmh
Humidity 97% 94% 96%
Pressure 31.50 in1066.7 mb 30.88 in1045.7 mb -
Precipitation 0.13 in3.3 mm - -
Hour Temp Dew Point Humidity Winds Wind Gusts Pressure Precip Precip Rate Daily Precip Total
12:00 AM 31.2°F-0.4°C 29.9°F-1.2°C 95% 2.3 mph SE3.7 kmh SE 1.2 mph1.9 kmh 31.48 in1066.0 mb - 0.00 in0.0 mm 0.00 in0.0 mm
12:10 AM 31.3°F-0.4°C 30.0°F-1.1°C 95% 1.2 mph SSE1.9 kmh SSE 1.2 mph1.9 kmh 31.48 in1066.0 mb - 0.00 in0.0 mm 0.00 in0.0 mm
12:20 AM 31.2°F-0.4°C 29.9°F-1.2°C 95% 1.2 mph S1.9 kmh S 1.2 mph1.9 kmh 31.47 in1065.7 mb - 0.00 in0.0 mm 0.00 in0.0 mm
12:30 AM 31.0°F-0.6°C 29.7°F-1.3°C 95% Calm Calm -- 31.46 in1065.4 mb - 0.00 in0.0 mm 0.00 in0.0 mm
12:40 AM 30.8°F-0.7°C 29.3°F-1.5°C 94% Calm Calm -- 31.46 in1065.4 mb - 0.00 in0.0 mm 0.00 in0.0 mm
12:50 AM 31.6°F-0.2°C 30.4°F-0.9°C 95% 1.2 mph SE1.9 kmh SE 1.2 mph1.9 kmh 31.47 in1065.7 mb - 0.00 in0.0 mm 0.00 in0.0 mm
01:00 AM 32.4°F0.2°C 31.1°F-0.5°C 95% 2.3 mph SE3.7 kmh SE 2.3 mph3.7 kmh 31.47 in1065.7 mb - 0.00 in0.0 mm 0.00 in0.0 mm
01:10 AM 32.6°F0.3°C 31.4°F-0.3°C 95% 2.3 mph SSE3.7 kmh SSE 2.3 mph3.7 kmh 31.47 in1065.7 mb - 0.00 in0.0 mm 0.00 in0.0 mm
01:20 AM 32.5°F0.3°C 31.3°F-0.4°C 95% 2.3 mph SE3.7 kmh SE 2.3 mph3.7 kmh 31.47 in1065.7 mb - 0.00 in0.0 mm 0.00 in0.0 mm
01:30 AM 32.8°F0.4°C 31.5°F-0.3°C 95% 1.2 mph SSW1.9 kmh SSW 2.3 mph3.7 kmh 31.47 in1065.7 mb - 0.00 in0.0 mm 0.00 in0.0 mm
01:40 AM 32.9°F0.5°C 31.6°F-0.2°C 95% 2.3 mph SE3.7 kmh SE 2.3 mph3.7 kmh 31.47 in1065.7 mb - 0.00 in0.0 mm 0.00 in0.0 mm
01:50 AM 33.2°F0.7°C 31.9°F-0.1°C 95% Calm Calm -- 31.47 in1065.7 mb - 0.00 in0.0 mm 0.00 in0.0 mm
02:00 AM 33.3°F0.7°C 32.0°F0.0°C 95% 2.3 mph SW3.7 kmh SW 3.5 mph5.6 kmh 31.47 in1065.7 mb - 0.00 in0.0 mm 0.00 in0.0 mm
02:10 AM 33.4°F0.8°C 32.1°F0.1°C 95% 2.3 mph S3.7 kmh S 2.3 mph3.7 kmh 31.47 in1065.7 mb - 0.00 in0.0 mm 0.00 in0.0 mm
02:20 AM 33.4°F0.8°C 32.1°F0.1°C 95% Calm Calm 1.2 mph1.9 kmh 31.48 in1066.0 mb - 0.00 in0.0 mm 0.00 in0.0 mm
02:30 AM 33.6°F0.9°C 32.4°F0.2°C 95% 3.5 mph S5.6 kmh S 2.3 mph3.7 kmh 31.48 in1066.0 mb - 0.00 in0.0 mm 0.00 in0.0 mm
02:40 AM 33.8°F1.0°C 32.5°F0.3°C 95% 1.2 mph SSE1.9 kmh SSE 1.2 mph1.9 kmh 31.48 in1066.0 mb - 0.00 in0.0 mm 0.00 in0.0 mm
02:50 AM 33.9°F1.1°C 32.6°F0.3°C 95% 2.3 mph S3.7 kmh S 2.3 mph3.7 kmh 31.49 in1066.4 mb - 0.00 in0.0 mm 0.00 in0.0 mm
03:00 AM 34.1°F1.2°C 32.8°F0.4°C 95% 1.2 mph SE1.9 kmh SE 2.3 mph3.7 kmh 31.48 in1066.0 mb - 0.00 in0.0 mm 0.00 in0.0 mm
03:10 AM 34.0°F1.1°C 32.7°F0.4°C 95% 1.2 mph SE1.9 kmh SE 1.2 mph1.9 kmh 31.48 in1066.0 mb - 0.00 in0.0 mm 0.00 in0.0 mm
03:20 AM 33.7°F0.9°C 32.4°F0.2°C 95% Calm Calm -- 31.48 in1066.0 mb - 0.00 in0.0 mm 0.00 in0.0 mm
03:30 AM 33.5°F0.8°C 32.2°F0.1°C 95% Calm Calm -- 31.48 in1066.0 mb - 0.00 in0.0 mm 0.00 in0.0 mm
03:40 AM 32.6°F0.3°C 31.3°F-0.4°C 95% Calm Calm -- 31.49 in1066.4 mb - 0.00 in0.0 mm 0.00 in0.0 mm
03:50 AM 31.6°F-0.2°C 30.3°F-0.9°C 95% Calm Calm -- 31.48 in1066.0 mb - 0.00 in0.0 mm 0.00 in0.0 mm
04:00 AM 30.8°F-0.7°C 29.2°F-1.6°C 94% Calm Calm -- 31.47 in1065.7 mb - 0.00 in0.0 mm 0.00 in0.0 mm
04:10 AM 30.7°F-0.7°C 29.2°F-1.6°C 94% 1.2 mph SSW1.9 kmh SSW 1.2 mph1.9 kmh 31.47 in1065.7 mb - 0.00 in0.0 mm 0.00 in0.0 mm
04:20 AM 31.0°F-0.6°C 29.7°F-1.3°C 95% 1.2 mph WSW1.9 kmh WSW 1.2 mph1.9 kmh 31.47 in1065.7 mb - 0.00 in0.0 mm 0.00 in0.0 mm
04:30 AM 32.0°F0.0°C 30.7°F-0.7°C 95% Calm Calm 1.2 mph1.9 kmh 31.47 in1065.7 mb - 0.00 in0.0 mm 0.00 in0.0 mm
04:40 AM 31.7°F-0.2°C 30.4°F-0.9°C 95% Calm Calm -- 31.47 in1065.7 mb - 0.00 in0.0 mm 0.00 in0.0 mm
04:50 AM 31.3°F-0.4°C 30.0°F-1.1°C 95% 2.3 mph WSW3.7 kmh WSW 2.3 mph3.7 kmh 31.47 in1065.7 mb - 0.00 in0.0 mm 0.00 in0.0 mm
05:00 AM 31.7°F-0.2°C 30.4°F-0.9°C 95% Calm Calm -- 31.47 in1065.7 mb - 0.00 in0.0 mm 0.00 in0.0 mm
05:10 AM 33.2°F0.7°C 31.9°F-0.1°C 95% Calm Calm -- 31.48 in1066.0 mb - 0.00 in0.0 mm 0.00 in0.0 mm
05:20 AM 34.7°F1.5°C 33.4°F0.8°C 95% 1.2 mph SSE1.9 kmh SSE 1.2 mph1.9 kmh 31.49 in1066.4 mb - 0.00 in0.0 mm 0.00 in0.0 mm
05:30 AM 35.9°F2.2°C 34.6°F1.4°C 95% Calm Calm 1.2 mph1.9 kmh 31.49 in1066.4 mb - 0.00 in0.0 mm 0.00 in0.0 mm
05:40 AM 36.4°F2.4°C 35.1°F1.7°C 95% 1.2 mph S1.9 kmh S 2.3 mph3.7 kmh 31.49 in1066.4 mb - 0.00 in0.0 mm 0.00 in0.0 mm
05:50 AM 36.5°F2.5°C 35.2°F1.8°C 95% 3.5 mph S5.6 kmh S 2.3 mph3.7 kmh 31.50 in1066.7 mb - 0.00 in0.0 mm 0.00 in0.0 mm
06:00 AM 36.8°F2.7°C 35.5°F1.9°C 95% 2.3 mph E3.7 kmh E 2.3 mph3.7 kmh 31.50 in1066.7 mb - 0.00 in0.0 mm 0.00 in0.0 mm
06:10 AM 36.8°F2.7°C 35.5°F1.9°C 95% Calm Calm -- 31.50 in1066.7 mb - 0.00 in0.0 mm 0.00 in0.0 mm
06:20 AM 37.1°F2.8°C 35.8°F2.1°C 95% Calm Calm -- 31.49 in1066.4 mb - 0.00 in0.0 mm 0.00 in0.0 mm
06:30 AM 37.2°F2.9°C 35.9°F2.2°C 95% Calm Calm 1.2 mph1.9 kmh 31.50 in1066.7 mb - 0.00 in0.0 mm 0.00 in0.0 mm
06:40 AM 37.2°F2.9°C 35.9°F2.2°C 95% Calm Calm -- 31.50 in1066.7 mb - 0.00 in0.0 mm 0.00 in0.0 mm
06:50 AM 37.1°F2.8°C 35.8°F2.1°C 95% Calm Calm -- 31.50 in1066.7 mb - 0.00 in0.0 mm 0.00 in0.0 mm
07:00 AM 37.3°F2.9°C 36.0°F2.2°C 95% Calm Calm -- 31.50 in1066.7 mb - 0.00 in0.0 mm 0.00 in0.0 mm
07:10 AM 37.5°F3.1°C 36.2°F2.3°C 95% Calm Calm -- 31.50 in1066.7 mb - 0.00 in0.0 mm 0.00 in0.0 mm
07:20 AM 37.8°F3.2°C 36.5°F2.5°C 95% 2.3 mph SE3.7 kmh SE 2.3 mph3.7 kmh 31.50 in1066.7 mb - 0.00 in0.0 mm 0.00 in0.0 mm
07:30 AM 38.2°F3.4°C 37.2°F2.9°C 96% Calm Calm 1.2 mph1.9 kmh 31.50 in1066.7 mb - 0.00 in0.0 mm 0.00 in0.0 mm
07:40 AM 38.1°F3.4°C 37.0°F2.8°C 96% Calm Calm -- 31.49 in1066.4 mb - 0.00 in0.0 mm 0.00 in0.0 mm
07:50 AM 39.1°F3.9°C 38.1°F3.4°C 96% 1.2 mph SSE1.9 kmh SSE 1.2 mph1.9 kmh 31.48 in1066.0 mb - 0.00 in0.0 mm 0.00 in0.0 mm
08:00 AM 40.3°F4.6°C 39.3°F4.1°C 96% 3.5 mph SE5.6 kmh SE 5.8 mph9.3 kmh 31.46 in1065.4 mb - 0.00 in0.0 mm 0.00 in0.0 mm
08:10 AM 41.7°F5.4°C 40.7°F4.8°C 96% 3.5 mph S5.6 kmh S 2.3 mph3.7 kmh 31.44 in1064.7 mb - 0.00 in0.0 mm 0.00 in0.0 mm
08:20 AM 42.7°F5.9°C 41.6°F5.3°C 96% 2.3 mph SE3.7 kmh SE 2.3 mph3.7 kmh 31.44 in1064.7 mb - 0.00 in0.0 mm 0.00 in0.0 mm
08:30 AM 43.1°F6.2°C 42.0°F5.6°C 96% Calm Calm -- 31.45 in1065.0 mb - 0.00 in0.0 mm 0.00 in0.0 mm
08:40 AM 43.5°F6.4°C 42.4°F5.8°C 96% 2.3 mph WSW3.7 kmh WSW 2.3 mph3.7 kmh 31.45 in1065.0 mb - 0.00 in0.0 mm 0.00 in0.0 mm
08:50 AM 43.7°F6.5°C 42.6°F5.9°C 96% Calm Calm 2.3 mph3.7 kmh 31.42 in1064.0 mb - 0.00 in0.0 mm 0.00 in0.0 mm
09:00 AM 44.0°F6.7°C 42.9°F6.1°C 96% 1.2 mph S1.9 kmh S 1.2 mph1.9 kmh 31.40 in1063.3 mb - 0.00 in0.0 mm 0.00 in0.0 mm
09:10 AM 44.4°F6.9°C 43.3°F6.3°C 96% 3.5 mph SSE5.6 kmh SSE 2.3 mph3.7 kmh 31.38 in1062.6 mb - 0.01 in0.3 mm 0.01 in0.3 mm
09:20 AM 44.7°F7.1°C 43.7°F6.5°C 96% 2.3 mph S3.7 kmh S 2.3 mph3.7 kmh 31.35 in1061.6 mb - 0.01 in0.3 mm 0.02 in0.5 mm
09:30 AM 45.0°F7.2°C 43.9°F6.6°C 96% 1.2 mph SE1.9 kmh SE 1.2 mph1.9 kmh 31.31 in1060.3 mb - 0.01 in0.3 mm 0.03 in0.8 mm
09:40 AM 45.3°F7.4°C 44.5°F6.9°C 97% 2.3 mph SSE3.7 kmh SSE 1.2 mph1.9 kmh 31.26 in1058.6 mb - 0.01 in0.3 mm 0.04 in1.0 mm
09:50 AM 45.7°F7.6°C 44.9°F7.2°C 97% 2.3 mph SE3.7 kmh SE 1.2 mph1.9 kmh 31.21 in1056.9 mb - 0.01 in0.3 mm 0.05 in1.3 mm
10:00 AM 45.8°F7.7°C 45.0°F7.2°C 97% Calm Calm 2.3 mph3.7 kmh 31.15 in1054.9 mb - 0.01 in0.3 mm 0.06 in1.5 mm
10:10 AM 46.8°F8.2°C 45.9°F7.7°C 97% Calm Calm -- 31.08 in1052.5 mb - 0.01 in0.3 mm 0.07 in1.8 mm
10:20 AM 47.4°F8.6°C 46.6°F8.1°C 97% 5.8 mph SE9.3 kmh SE 5.8 mph9.3 kmh 31.06 in1051.8 mb - 0.01 in0.3 mm 0.08 in2.0 mm
10:30 AM 47.9°F8.8°C 47.1°F8.4°C 97% 3.5 mph WSW5.6 kmh WSW 1.2 mph1.9 kmh 31.02 in1050.5 mb - 0.01 in0.3 mm 0.09 in2.3 mm
10:40 AM 48.5°F9.2°C 47.7°F8.7°C 97% 1.2 mph NNW1.9 kmh NNW 1.2 mph1.9 kmh 30.96 in1048.4 mb - 0.01 in0.3 mm 0.10 in2.5 mm
10:50 AM 49.6°F9.8°C 48.7°F9.3°C 97% 2.3 mph E3.7 kmh E 2.3 mph3.7 kmh 30.88 in1045.7 mb - 0.01 in0.3 mm 0.11 in2.8 mm
11:00 AM 50.5°F10.3°C 49.7°F9.8°C 97% 6.9 mph S11.1 kmh S 3.5 mph5.6 kmh 30.88 in1045.7 mb - 0.01 in0.3 mm 0.12 in3.0 mm
11:10 AM 50.8°F10.4°C 50.0°F10.0°C 97% 3.5 mph S5.6 kmh S 2.3 mph3.7 kmh 30.90 in1046.4 mb - 0.01 in0.3 mm 0.13 in3.3 mm
11:20 AM 50.6°F10.3°C 49.8°F9.9°C 97% 2.3 mph SE3.7 kmh SE 2.3 mph3.7 kmh 30.94 in1047.7 mb - 0.00 in0.0 mm 0.13 in3.3 mm
11:30 AM 50.2°F10.1°C 49.4°F9.7°C 97% 2.3 mph NNW3.7 kmh NNW 2.3 mph3.7 kmh 30.99 in1049.4 mb - 0.00 in0.0 mm 0.13 in3.3 mm
11:40 AM 50.4°F10.2°C 49.6°F9.8°C 97% 1.2 mph SSE1.9 kmh SSE 1.2 mph1.9 kmh 31.01 in1050.1 mb - 0.00 in0.0 mm 0.13 in3.3 mm
11:50 AM 50.2°F10.1°C 49.4°F9.7°C 97% 3.5 mph S5.6 kmh S 2.3 mph3.7 kmh 31.04 in1051.1 mb - 0.00 in0.0 mm 0.13 in3.3 mm
12:00 PM 50.1°F10.1°C 49.3°F9.6°C 97% 1.2 mph S1.9 kmh S 1.2 mph1.9 kmh 31.05 in1051.5 mb - 0.00 in0.0 mm 0.13 in3.3 mm
12:10 PM 50.2°F10.1°C 49.4°F9.7°C 97% 2.3 mph SSE3.7 kmh SSE 5.8 mph9.3 kmh 31.05 in1051.5 mb - 0.00 in0.0 mm 0.13 in3.3 mm
12:20 PM 50.4°F10.2°C 49.6°F9.8°C 97% 4.6 mph WSW7.4 kmh WSW 3.5 mph5.6 kmh 31.03 in1050.8 mb - 0.00 in0.0 mm 0.13 in3.3 mm
12:30 PM 50.6°F10.3°C 49.8°F9.9°C 97% 4.6 mph SE7.4 kmh SE 5.8 mph9.3 kmh 31.03 in1050.8 mb - 0.00 in0.0 mm 0.13 in3.3 mm
12:40 PM 50.7°F10.4°C 49.9°F9.9°C 97% 2.3 mph S3.7 kmh S 2.3 mph3.7 kmh 31.04 in1051.1 mb - 0.00 in0.0 mm 0.13 in3.3 mm
12:50 PM 50.9°F10.5°C 50.1°F10.1°C 97% 1.2 mph SSE1.9 kmh SSE 1.2 mph1.9 kmh 31.04 in1051.1 mb - 0.00 in0.0 mm 0.13 in3.3 mm
01:00 PM 51.1°F10.6°C 50.3°F10.2°C 97% 1.2 mph SE1.9 kmh SE 1.2 mph1.9 kmh 31.02 in1050.5 mb - 0.00 in0.0 mm 0.13 in3.3 mm
01:10 PM 51.4°F10.8°C 50.6°F10.3°C 97% 4.6 mph S7.4 kmh S 3.5 mph5.6 kmh 31.02 in1050.5 mb - 0.00 in0.0 mm 0.13 in3.3 mm
01:20 PM 51.6°F10.9°C 50.8°F10.4°C 97% 2.3 mph S3.7 kmh S 1.2 mph1.9 kmh 31.02 in1050.5 mb - 0.00 in0.0 mm 0.13 in3.3 mm
01:30 PM 51.6°F10.9°C 50.8°F10.4°C 97% 3.5 mph SE5.6 kmh SE 3.5 mph5.6 kmh 31.04 in1051.1 mb - 0.00 in0.0 mm 0.13 in3.3 mm
01:40 PM 51.7°F10.9°C 50.9°F10.5°C 97% Calm Calm 1.2 mph1.9 kmh 31.03 in1050.8 mb - 0.00 in0.0 mm 0.13 in3.3 mm
01:50 PM 52.0°F11.1°C 51.2°F10.7°C 97% 3.5 mph SE5.6 kmh SE 2.3 mph3.7 kmh 31.03 in1050.8 mb - 0.00 in0.0 mm 0.13 in3.3 mm
02:00 PM 52.2°F11.2°C 51.4°F10.8°C 97% 1.2 mph NNE1.9 kmh NNE -- 31.00 in1049.8 mb - 0.00 in0.0 mm 0.13 in3.3 mm
02:10 PM 52.4°F11.3°C 51.6°F10.9°C 97% 2.3 mph NW3.7 kmh NW 2.3 mph3.7 kmh 31.00 in1049.8 mb - 0.00 in0.0 mm 0.13 in3.3 mm
02:20 PM 52.5°F11.4°C 51.7°F10.9°C 97% 1.2 mph SE1.9 kmh SE 1.2 mph1.9 kmh 31.01 in1050.1 mb - 0.00 in0.0 mm 0.13 in3.3 mm
02:30 PM 52.7°F11.5°C 51.9°F11.1°C 97% 1.2 mph W1.9 kmh W 1.2 mph1.9 kmh 31.02 in1050.5 mb - 0.00 in0.0 mm 0.13 in3.3 mm
02:40 PM 52.9°F11.6°C 52.1°F11.2°C 97% 2.3 mph NNE3.7 kmh NNE 2.3 mph3.7 kmh 31.02 in1050.5 mb - 0.00 in0.0 mm 0.13 in3.3 mm
02:50 PM 52.9°F11.6°C 52.1°F11.2°C 97% 2.3 mph SE3.7 kmh SE 1.2 mph1.9 kmh 31.03 in1050.8 mb - 0.00 in0.0 mm 0.13 in3.3 mm
03:00 PM 52.5°F11.4°C 51.7°F10.9°C 97% 1.2 mph SE1.9 kmh SE -- 31.04 in1051.1 mb - 0.00 in0.0 mm 0.13 in3.3 mm
03:10 PM 52.3°F11.3°C 51.5°F10.8°C 97% 4.6 mph SE7.4 kmh SE 2.3 mph3.7 kmh 31.07 in1052.2 mb - 0.00 in0.0 mm 0.13 in3.3 mm
03:20 PM 51.9°F11.1°C 51.1°F10.6°C 97% Calm Calm -- 31.09 in1052.8 mb - 0.00 in0.0 mm 0.13 in3.3 mm
03:30 PM 51.9°F11.1°C 51.1°F10.6°C 97% 1.2 mph SW1.9 kmh SW 1.2 mph1.9 kmh 31.10 in1053.2 mb - 0.00 in0.0 mm 0.13 in3.3 mm
03:40 PM 51.4°F10.8°C 50.6°F10.3°C 97% 1.2 mph N1.9 kmh N 2.3 mph3.7 kmh 31.12 in1053.8 mb - 0.00 in0.0 mm 0.13 in3.3 mm
03:50 PM 51.1°F10.6°C 50.3°F10.2°C 97% 3.5 mph SE5.6 kmh SE 3.5 mph5.6 kmh 31.14 in1054.5 mb - 0.00 in0.0 mm 0.13 in3.3 mm
04:00 PM 51.0°F10.6°C 50.2°F10.1°C 97% 2.3 mph SSW3.7 kmh SSW 2.3 mph3.7 kmh 31.15 in1054.9 mb - 0.00 in0.0 mm 0.13 in3.3 mm
04:10 PM 50.5°F10.3°C 49.7°F9.8°C 97% 1.2 mph SE1.9 kmh SE 1.2 mph1.9 kmh 31.18 in1055.9 mb - 0.00 in0.0 mm 0.13 in3.3 mm
04:20 PM 50.4°F10.2°C 49.6°F9.8°C 97% 1.2 mph SSE1.9 kmh SSE 1.2 mph1.9 kmh 31.20 in1056.6 mb - 0.00 in0.0 mm 0.13 in3.3 mm
04:30 PM 50.2°F10.1°C 49.4°F9.7°C 97% 4.6 mph SE7.4 kmh SE 5.8 mph9.3 kmh 31.21 in1056.9 mb - 0.00 in0.0 mm 0.13 in3.3 mm
04:40 PM 49.9°F9.9°C 49.1°F9.5°C 97% 2.3 mph SSE3.7 kmh SSE 2.3 mph3.7 kmh 31.24 in1057.9 mb - 0.00 in0.0 mm 0.13 in3.3 mm
04:50 PM 49.2°F9.6°C 48.4°F9.1°C 97% 2.3 mph SSE3.7 kmh SSE 2.3 mph3.7 kmh 31.26 in1058.6 mb - 0.00 in0.0 mm 0.13 in3.3 mm
05:00 PM 49.1°F9.5°C 48.3°F9.1°C 97% 1.2 mph N1.9 kmh N 1.2 mph1.9 kmh 31.27 in1058.9 mb - 0.00 in0.0 mm 0.13 in3.3 mm
05:10 PM 49.0°F9.4°C 48.2°F9.0°C 97% 2.3 mph SW3.7 kmh SW 2.3 mph3.7 kmh 31.29 in1059.6 mb - 0.00 in0.0 mm 0.13 in3.3 mm
05:20 PM 48.9°F9.4°C 48.1°F8.9°C 97% 1.2 mph WSW1.9 kmh WSW 1.2 mph1.9 kmh 31.30 in1059.9 mb - 0.00 in0.0 mm 0.13 in3.3 mm
05:30 PM 48.7°F9.3°C 47.9°F8.8°C 97% 1.2 mph SSW1.9 kmh SSW 1.2 mph1.9 kmh 31.31 in1060.3 mb - 0.00 in0.0 mm 0.13 in3.3 mm
05:40 PM 48.7°F9.3°C 47.9°F8.8°C 97% 1.2 mph E1.9 kmh E 2.3 mph3.7 kmh 31.32 in1060.6 mb - 0.00 in0.0 mm 0.13 in3.3 mm
05:50 PM 48.5°F9.2°C 47.7°F8.7°C 97% 1.2 mph NE1.9 kmh NE 1.2 mph1.9 kmh 31.33 in1061.0 mb - 0.00 in0.0 mm 0.13 in3.3 mm
06:00 PM 48.7°F9.3°C 47.9°F8.8°C 97% 1.2 mph ESE1.9 kmh ESE 1.2 mph1.9 kmh 31.35 in1061.6 mb - 0.00 in0.0 mm 0.13 in3.3 mm
06:10 PM 48.6°F9.2°C 47.8°F8.8°C 97% 1.2 mph ESE1.9 kmh ESE 2.3 mph3.7 kmh 31.35 in1061.6 mb - 0.00 in0.0 mm 0.13 in3.3 mm
06:20 PM 48.2°F9.0°C 47.4°F8.6°C 97% 2.3 mph SSE3.7 kmh SSE 2.3 mph3.7 kmh 31.37 in1062.3 mb - 0.00 in0.0 mm 0.13 in3.3 mm
06:30 PM 48.1°F8.9°C 47.2°F8.4°C 97% 2.3 mph S3.7 kmh S 2.3 mph3.7 kmh 31.38 in1062.6 mb - 0.00 in0.0 mm 0.13 in3.3 mm
06:40 PM 48.1°F8.9°C 47.3°F8.5°C 97% 3.5 mph S5.6 kmh S 2.3 mph3.7 kmh 31.39 in1063.0 mb - 0.00 in0.0 mm 0.13 in3.3 mm
06:50 PM 48.1°F8.9°C 47.3°F8.5°C 97% 1.2 mph S1.9 kmh S 1.2 mph1.9 kmh 31.39 in1063.0 mb - 0.00 in0.0 mm 0.13 in3.3 mm
07:00 PM 47.9°F8.8°C 47.1°F8.4°C 97% 2.3 mph SSE3.7 kmh SSE 1.2 mph1.9 kmh 31.40 in1063.3 mb - 0.00 in0.0 mm 0.13 in3.3 mm
07:10 PM 48.2°F9.0°C 47.4°F8.6°C 97% 1.2 mph NE1.9 kmh NE 1.2 mph1.9 kmh 31.41 in1063.7 mb - 0.00 in0.0 mm 0.13 in3.3 mm
07:20 PM 47.9°F8.8°C 47.1°F8.4°C 97% 3.5 mph WSW5.6 kmh WSW 2.3 mph3.7 kmh 31.41 in1063.7 mb - 0.00 in0.0 mm 0.13 in3.3 mm
07:30 PM 47.6°F8.7°C 46.8°F8.2°C 97% 1.2 mph SE1.9 kmh SE 1.2 mph1.9 kmh 31.41 in1063.7 mb - 0.00 in0.0 mm 0.13 in3.3 mm
07:40 PM 46.5°F8.1°C 45.6°F7.6°C 97% 2.3 mph SE3.7 kmh SE 2.3 mph3.7 kmh 31.42 in1064.0 mb - 0.00 in0.0 mm 0.13 in3.3 mm
07:50 PM 45.1°F7.3°C 44.3°F6.8°C 97% 1.2 mph SE1.9 kmh SE 1.2 mph1.9 kmh 31.41 in1063.7 mb - 0.00 in0.0 mm 0.13 in3.3 mm
08:00 PM 44.6°F7.0°C 43.6°F6.4°C 96% Calm Calm -- 31.41 in1063.7 mb - 0.00 in0.0 mm 0.13 in3.3 mm
08:10 PM 44.3°F6.8°C 43.2°F6.2°C 96% Calm Calm -- 31.41 in1063.7 mb - 0.00 in0.0 mm 0.13 in3.3 mm
08:20 PM 44.2°F6.8°C 43.1°F6.2°C 96% 2.3 mph SE3.7 kmh SE 2.3 mph3.7 kmh 31.41 in1063.7 mb - 0.00 in0.0 mm 0.13 in3.3 mm
08:30 PM 44.0°F6.7°C 42.9°F6.1°C 96% 3.5 mph ESE5.6 kmh ESE 2.3 mph3.7 kmh 31.41 in1063.7 mb - 0.00 in0.0 mm 0.13 in3.3 mm
08:40 PM 43.7°F6.5°C 42.7°F5.9°C 96% Calm Calm 1.2 mph1.9 kmh 31.41 in1063.7 mb - 0.00 in0.0 mm 0.13 in3.3 mm
08:50 PM 43.6°F6.4°C 42.6°F5.9°C 96% 3.5 mph SE5.6 kmh SE 2.3 mph3.7 kmh 31.41 in1063.7 mb - 0.00 in0.0 mm 0.13 in3.3 mm
09:00 PM 43.7°F6.5°C 42.6°F5.9°C 96% Calm Calm 1.2 mph1.9 kmh 31.40 in1063.3 mb - 0.00 in0.0 mm 0.13 in3.3 mm
09:10 PM 43.6°F6.4°C 42.5°F5.8°C 96% Calm Calm -- 31.39 in1063.0 mb - 0.00 in0.0 mm 0.13 in3.3 mm
09:20 PM 43.5°F6.4°C 42.4°F5.8°C 96% Calm Calm -- 31.40 in1063.3 mb - 0.00 in0.0 mm 0.13 in3.3 mm
09:30 PM 43.2°F6.2°C 42.1°F5.6°C 96% Calm Calm -- 31.39 in1063.0 mb - 0.00 in0.0 mm 0.13 in3.3 mm
09:40 PM 43.2°F6.2°C 42.1°F5.6°C 96% Calm Calm 1.2 mph1.9 kmh 31.39 in1063.0 mb - 0.00 in0.0 mm 0.13 in3.3 mm
09:50 PM 43.3°F6.3°C 42.2°F5.7°C 96% Calm Calm -- 31.39 in1063.0 mb - 0.00 in0.0 mm 0.13 in3.3 mm
10:00 PM 42.7°F5.9°C 41.7°F5.4°C 96% Calm Calm -- 31.39 in1063.0 mb - 0.00 in0.0 mm 0.13 in3.3 mm
10:10 PM 42.8°F6.0°C 41.7°F5.4°C 96% 3.5 mph E5.6 kmh E 2.3 mph3.7 kmh 31.39 in1063.0 mb - 0.00 in0.0 mm 0.13 in3.3 mm
10:20 PM 42.9°F6.1°C 41.9°F5.5°C 96% Calm Calm 1.2 mph1.9 kmh 31.39 in1063.0 mb - 0.00 in0.0 mm 0.13 in3.3 mm
10:30 PM 43.1°F6.2°C 42.0°F5.6°C 96% 1.2 mph S1.9 kmh S 1.2 mph1.9 kmh 31.39 in1063.0 mb - 0.00 in0.0 mm 0.13 in3.3 mm
10:40 PM 44.7°F7.1°C 43.6°F6.4°C 96% Calm Calm -- 31.39 in1063.0 mb - 0.00 in0.0 mm 0.13 in3.3 mm
10:50 PM 45.3°F7.4°C 44.5°F6.9°C 97% Calm Calm -- 31.39 in1063.0 mb - 0.00 in0.0 mm 0.13 in3.3 mm
11:00 PM 43.8°F6.6°C 42.8°F6.0°C 96% Calm Calm -- 31.39 in1063.0 mb - 0.00 in0.0 mm 0.13 in3.3 mm
11:10 PM 43.4°F6.3°C 42.3°F5.7°C 96% Calm Calm -- 31.39 in1063.0 mb - 0.00 in0.0 mm 0.13 in3.3 mm
11:20 PM 44.0°F6.7°C 43.0°F6.1°C 96% Calm Calm -- 31.39 in1063.0 mb - 0.00 in0.0 mm 0.13 in3.3 mm
11:30 PM 44.1°F6.7°C 43.0°F6.1°C 96% 1.2 mph S1.9 kmh S 1.2 mph1.9 kmh 31.39 in1063.0 mb - 0.00 in0.0 mm 0.13 in3.3 mm
11:40 PM 45.6°F7.6°C 44.8°F7.1°C 97% 2.3 mph SE3.7 kmh SE 1.2 mph1.9 kmh 31.38 in1062.6 mb - 0.00 in0.0 mm 0.13 in3.3 mm
11:50 PM 46.3°F7.9°C 45.4°F7.4°C 97% 1.2 mph S1.9 kmh S 2.3 mph3.7 kmh 31.38 in1062.6 mb - 0.00 in0.0 mm 0.13 in3.3 mm